LSGE weather

Public forecast

Using degrees Celsius for public forecast. Weather courtesy of forecast.io.

Closest aviation weather report (METAR) to Ecuvillens Airport

Closest report is Payerne Air Base, 8.5 nm (15.7 km) NW. Retrieved 2020/08/14 17:20 UTC (5 minutes ago):

LSMP 141720Z AUTO 01004KT 340V050 9999NDV SCT093 24/17 Q1016 RMK

Closest aviation forecast (TAF) to Ecuvillens Airport

Forecast is more than 6 hours old.

Closest forecast is Payerne Air Base, 8.5 nm (15.7 km) NW. Retrieved 2020/08/14 10:00 UTC (7 hours ago):

TAF LSMP 140925Z 1410/1516 21004KT 9999 BKN050 PROB30 TEMPO 1410/1412 SHRA